Time;durP1;ratioP1;P1;durP2;ratioP2;P2;SDS_P1;SDS_P2;PMS_P1;PMS_P2;Temp;Humidity;BMP_temperature;BMP_pressure;BME280_temperature;BME280_humidity;BME280_pressure;Samples;Min_cycle;Max_cycle;Signal;HPM_P1;HPM_P2
2022/03/26 00:00:44;;;;;;;610.67;296.60;;;;;;;7.60;41.51;95699.81;5056997;28;20248;-84
2022/03/26 00:03:09;;;;;;;364.37;241.73;;;;;;;7.67;42.01;95713.03;5073960;28;20174;-83
2022/03/26 00:05:35;;;;;;;656.37;429.47;;;;;;;7.58;41.51;95697.34;5074012;28;20613;-84
2022/03/26 00:08:01;;;;;;;501.67;410.90;;;;;;;7.85;42.00;95751.09;5072840;28;20612;-85
2022/03/26 00:10:27;;;;;;;136.27;61.63;;;;;;;7.24;42.11;95675.91;5074144;28;20171;-85
2022/03/26 00:12:52;;;;;;;157.33;80.20;;;;;;;7.42;42.16;95701.84;5074355;28;20175;-85
2022/03/26 00:15:18;;;;;;;102.43;51.57;;;;;;;7.41;42.16;95703.66;5074541;28;20312;-85
2022/03/26 00:17:44;;;;;;;345.73;299.33;;;;;;;7.16;42.31;95668.06;5056860;28;20654;-85
2022/03/26 00:20:10;;;;;;;111.57;71.83;;;;;;;7.16;42.38;95687.22;5074523;28;20163;-84
2022/03/26 00:22:36;;;;;;;547.23;264.03;;;;;;;7.23;42.72;95707.47;5080705;28;20161;-85
2022/03/26 00:25:03;;;;;;;143.87;65.13;;;;;;;6.87;42.97;95660.78;5074473;28;20281;-84
2022/03/26 00:27:28;;;;;;;471.37;217.70;;;;;;;7.36;44.52;95747.84;5056262;28;20220;-84
2022/03/26 00:29:54;;;;;;;183.30;90.97;;;;;;;6.97;44.56;95687.59;5056018;28;20655;-84
2022/03/26 00:32:19;;;;;;;145.93;72.83;;;;;;;6.96;44.66;95669.44;5074197;28;20612;-85
2022/03/26 00:34:45;;;;;;;123.00;45.50;;;;;;;6.87;44.19;95639.84;5068801;28;20209;-84
2022/03/26 00:37:11;;;;;;;89.47;36.83;;;;;;;7.11;43.70;95676.41;5056025;28;20166;-84
2022/03/26 00:39:39;;;;;;;79.73;30.50;;;;;;;7.44;43.39;95721.63;5073785;28;20171;-84
2022/03/26 00:42:08;;;;;;;64.10;24.07;;;;;;;7.31;43.28;95702.22;5056128;28;20166;-84
2022/03/26 00:44:35;;;;;;;73.20;30.67;;;;;;;7.39;43.62;95723.13;5074076;28;20170;-84
2022/03/26 00:47:00;;;;;;;55.67;25.93;;;;;;;7.21;43.41;95705.03;5074495;28;21063;-83
2022/03/26 00:49:25;;;;;;;56.00;20.63;;;;;;;7.00;43.33;95673.38;5055085;28;20177;-83
2022/03/26 00:51:51;;;;;;;51.57;21.33;;;;;;;7.50;43.26;95752.41;5072626;28;20179;-83
2022/03/26 00:54:16;;;;;;;68.20;28.10;;;;;;;7.43;43.61;95751.44;5055081;28;20232;-83
2022/03/26 00:56:43;;;;;;;44.73;20.67;;;;;;;7.54;43.46;95755.47;5073218;28;20173;-83
2022/03/26 00:59:09;;;;;;;46.83;18.83;;;;;;;7.58;43.54;95760.22;5073438;28;20166;-84
2022/03/26 01:01:35;;;;;;;66.67;25.63;;;;;;;7.55;44.02;95760.56;5073697;28;20178;-84
2022/03/26 01:04:01;;;;;;;47.60;21.00;;;;;;;7.49;43.75;95755.19;5073728;28;20632;-84
2022/03/26 01:06:27;;;;;;;64.57;26.33;;;;;;;7.55;43.78;95764.97;5073596;28;20221;-84
2022/03/26 01:08:54;;;;;;;47.40;18.57;;;;;;;7.53;44.14;95774.81;5073583;28;20173;-84
2022/03/26 01:11:19;;;;;;;49.03;22.47;;;;;;;7.12;44.05;95711.25;5055640;28;20251;-83
2022/03/26 01:13:46;;;;;;;53.77;25.53;;;;;;;7.32;44.21;95750.97;5073534;28;20189;-84
2022/03/26 01:16:15;;;;;;;51.93;23.70;;;;;;;7.13;43.73;95729.44;5055569;28;20179;-83
2022/03/26 01:18:42;;;;;;;50.57;23.37;;;;;;;7.45;44.17;95777.44;5051059;28;20186;-84
2022/03/26 01:21:08;;;;;;;40.20;17.40;;;;;;;7.25;43.42;95747.41;5072792;28;20166;-83
2022/03/26 01:23:34;;;;;;;47.57;19.03;;;;;;;7.36;43.51;95784.50;5072618;28;20171;-84
2022/03/26 01:26:01;;;;;;;38.80;16.40;;;;;;;7.26;43.87;95786.53;5054716;28;20247;-82
2022/03/26 01:28:27;;;;;;;43.67;17.63;;;;;;;6.87;44.25;95747.16;5071661;28;20167;-83
2022/03/26 01:30:53;;;;;;;49.80;16.97;;;;;;;7.01;44.79;95787.53;5073654;28;20193;-83
2022/03/26 01:33:18;;;;;;;44.10;17.30;;;;;;;6.44;44.73;95732.63;5073118;28;20189;-83
2022/03/26 01:35:44;;;;;;;43.17;16.97;;;;;;;6.37;45.32;95736.88;5072943;28;20289;-83
2022/03/26 01:38:09;;;;;;;38.57;16.20;;;;;;;6.10;45.54;95713.66;5085395;28;20735;-84
2022/03/26 01:40:36;;;;;;;48.80;17.37;;;;;;;6.52;45.71;95794.56;5072496;28;20198;-83
2022/03/26 01:43:02;;;;;;;40.40;17.13;;;;;;;6.44;46.24;95790.97;5054540;28;20963;-83
2022/03/26 01:45:28;;;;;;;48.03;20.03;;;;;;;6.40;46.76;95800.13;5072326;28;20236;-82
2022/03/26 01:47:58;;;;;;;49.97;18.53;;;;;;;6.31;46.80;95789.84;5072866;28;20166;-82
2022/03/26 01:50:25;;;;;;;46.60;17.30;;;;;;;6.28;46.77;95793.56;5080114;28;20212;-82
2022/03/26 01:52:51;;;;;;;49.37;17.40;;;;;;;6.25;47.03;95801.72;5072794;28;20171;-83
2022/03/26 01:55:18;;;;;;;42.07;17.30;;;;;;;5.84;47.39;95734.66;5072781;28;20149;-83
2022/03/26 01:57:44;;;;;;;41.03;17.30;;;;;;;5.79;47.42;95735.13;5054749;28;20162;-82
2022/03/26 02:00:11;;;;;;;42.00;18.80;;;;;;;5.55;47.60;95707.13;5072851;28;20150;-82
2022/03/26 02:02:43;;;;;;;44.23;18.60;;;;;;;6.04;47.78;95794.34;5072758;28;21082;-82
2022/03/26 02:05:12;;;;;;;47.90;18.23;;;;;;;5.62;48.13;95731.63;5071385;28;20428;-82
2022/03/26 02:07:39;;;;;;;40.50;18.83;;;;;;;5.60;48.24;95732.78;5071669;28;20174;-83
2022/03/26 02:10:08;;;;;;;38.80;17.03;;;;;;;5.61;48.65;95750.91;5071543;28;20646;-82
2022/03/26 02:12:33;;;;;;;52.40;18.93;;;;;;;5.37;48.22;95716.88;5071699;28;20267;-82
2022/03/26 02:14:59;;;;;;;43.67;16.50;;;;;;;5.40;48.33;95726.19;5071577;28;20663;-83
2022/03/26 02:17:25;;;;;;;47.80;17.43;;;;;;;5.45;48.78;95748.22;5072062;28;20209;-82
2022/03/26 02:19:52;;;;;;;33.47;14.83;;;;;;;5.75;48.93;95809.56;5054289;28;20627;-83
2022/03/26 02:22:17;;;;;;;38.60;15.30;;;;;;;5.65;49.45;95812.28;5072177;28;20166;-82
2022/03/26 02:24:43;;;;;;;36.57;16.40;;;;;;;5.43;49.80;95783.31;5072481;28;20537;-82
2022/03/26 02:27:09;;;;;;;27.73;14.07;;;;;;;5.57;49.55;95804.44;5071481;28;20655;-82
2022/03/26 02:29:34;;;;;;;33.23;14.63;;;;;;;5.53;49.73;95804.91;5071399;28;20220;-82
2022/03/26 02:32:01;;;;;;;34.50;15.00;;;;;;;5.15;50.07;95757.41;5053674;28;20190;-82
2022/03/26 02:34:27;;;;;;;58.07;19.60;;;;;;;5.09;50.46;95754.59;5053264;28;20214;-83
2022/03/26 02:36:55;;;;;;;31.27;15.30;;;;;;;5.00;50.40;95751.13;5072337;28;20189;-83
2022/03/26 02:39:21;;;;;;;48.03;17.77;;;;;;;5.14;50.31;95775.81;5071339;28;20174;-82
2022/03/26 02:41:47;;;;;;;36.20;16.93;;;;;;;5.00;50.41;95758.13;5053519;28;20169;-82
2022/03/26 02:44:12;;;;;;;37.43;16.17;;;;;;;5.00;50.30;95758.94;5071222;28;20182;-83
2022/03/26 02:46:38;;;;;;;35.00;17.87;;;;;;;4.83;50.16;95731.13;5071503;28;20198;-83
2022/03/26 02:49:03;;;;;;;33.67;16.60;;;;;;;4.94;50.31;95755.13;5053988;28;20228;-82
2022/03/26 02:51:29;;;;;;;42.47;19.10;;;;;;;4.73;50.52;95720.78;5072996;28;20224;-82
2022/03/26 02:53:54;;;;;;;47.87;20.47;;;;;;;4.80;50.93;95742.69;5078633;28;20155;-83
2022/03/26 02:56:20;;;;;;;44.57;21.60;;;;;;;4.85;50.99;95757.84;5072247;28;20191;-83
2022/03/26 02:58:47;;;;;;;54.00;20.27;;;;;;;4.88;51.46;95763.59;5072632;28;20174;-83
2022/03/26 03:01:13;;;;;;;43.90;18.43;;;;;;;5.15;52.38;95817.41;5070974;28;20238;-82
2022/03/26 03:03:39;;;;;;;51.70;19.73;;;;;;;4.82;51.93;95773.81;5073040;28;20166;-83
2022/03/26 03:06:04;;;;;;;38.33;18.27;;;;;;;4.60;52.28;95746.44;5079702;28;20272;-83
2022/03/26 03:08:30;;;;;;;46.07;21.17;;;;;;;5.06;51.89;95817.50;5071283;28;20167;-83
2022/03/26 03:10:55;;;;;;;49.73;20.67;;;;;;;4.76;51.97;95780.44;5071441;28;20636;-83
2022/03/26 03:13:22;;;;;;;42.63;19.67;;;;;;;4.65;52.04;95765.06;5075367;28;20552;-83
2022/03/26 03:15:50;;;;;;;40.07;20.40;;;;;;;4.55;51.93;95762.53;5075834;28;20534;-83
2022/03/26 03:18:17;;;;;;;44.17;21.33;;;;;;;4.54;52.43;95762.69;5057730;28;20639;-83
2022/03/26 03:20:43;;;;;;;51.33;20.97;;;;;;;4.78;53.05;95803.78;5075558;28;20151;-83
2022/03/26 03:23:08;;;;;;;48.90;21.00;;;;;;;4.39;52.87;95744.19;5057054;28;20180;-83
2022/03/26 03:25:34;;;;;;;52.13;21.43;;;;;;;4.57;52.69;95782.44;5075173;28;20202;-83
2022/03/26 03:28:00;;;;;;;47.37;21.17;;;;;;;4.23;53.03;95743.22;5074881;28;20261;-83
2022/03/26 03:30:26;;;;;;;42.50;21.67;;;;;;;4.38;53.42;95775.59;5075120;28;20182;-83
2022/03/26 03:32:52;;;;;;;52.90;22.53;;;;;;;4.11;53.70;95737.41;5075692;28;20154;-83
2022/03/26 03:35:18;;;;;;;49.57;21.40;;;;;;;4.26;54.02;95777.59;5057336;28;20691;-83
2022/03/26 03:37:43;;;;;;;46.50;21.70;;;;;;;4.19;53.57;95763.53;5075255;28;20174;-83
2022/03/26 03:40:10;;;;;;;46.97;21.80;;;;;;;4.59;54.26;95832.63;5057349;28;20198;-83
2022/03/26 03:42:36;;;;;;;46.33;19.70;;;;;;;4.57;54.41;95827.59;5075811;28;20631;-83
2022/03/26 03:45:03;;;;;;;38.50;18.53;;;;;;;3.97;53.99;95743.97;5057142;28;20228;-83
2022/03/26 03:47:29;;;;;;;48.53;19.00;;;;;;;4.06;53.88;95757.88;5075678;28;20304;-82
2022/03/26 03:49:54;;;;;;;47.03;18.00;;;;;;;4.11;53.84;95771.28;5075072;28;20637;-82
2022/03/26 03:52:20;;;;;;;40.13;17.97;;;;;;;3.96;53.61;95750.16;5056700;28;20257;-82
2022/03/26 03:54:45;;;;;;;39.40;16.90;;;;;;;3.89;54.15;95749.09;5074092;28;20170;-81
2022/03/26 03:57:11;;;;;;;47.90;18.77;;;;;;;4.44;54.16;95847.97;5074177;28;20555;-82
2022/03/26 03:59:40;;;;;;;41.10;18.10;;;;;;;4.44;54.02;95842.75;5073874;28;20174;-81
2022/03/26 04:02:09;;;;;;;44.07;20.77;;;;;;;4.40;54.61;95844.03;5073376;28;20261;-81
2022/03/26 04:04:36;;;;;;;47.83;19.07;;;;;;;4.19;54.45;95810.44;5074729;28;20154;-82
2022/03/26 04:07:01;;;;;;;52.20;20.30;;;;;;;4.08;54.14;95792.41;5076424;28;20175;-82
2022/03/26 04:09:27;;;;;;;40.73;15.73;;;;;;;4.02;53.71;95791.22;5061690;28;20174;-82
2022/03/26 04:11:52;;;;;;;37.60;18.10;;;;;;;3.88;53.40;95773.50;5074902;28;20174;-82
2022/03/26 04:14:18;;;;;;;57.50;30.07;;;;;;;3.91;53.44;95777.56;5074855;28;20174;-82
2022/03/26 04:16:43;;;;;;;64.07;30.50;;;;;;;4.03;53.70;95798.06;5075056;28;20173;-83
2022/03/26 04:19:10;;;;;;;70.47;33.07;;;;;;;4.05;53.23;95801.34;5076430;28;20166;-81
2022/03/26 04:21:35;;;;;;;67.37;32.47;;;;;;;4.33;53.35;95843.78;5059046;28;20647;-82
2022/03/26 04:24:00;;;;;;;72.63;30.13;;;;;;;4.17;52.78;95826.22;5073292;28;20197;-82
2022/03/26 04:26:26;;;;;;;44.30;20.67;;;;;;;4.21;52.21;95836.34;5074356;28;20214;-82
2022/03/26 04:28:51;;;;;;;39.90;21.13;;;;;;;3.95;52.60;95805.81;5073783;28;20182;-82
2022/03/26 04:31:17;;;;;;;44.87;21.50;;;;;;;4.08;52.82;95811.47;5073471;28;20174;-82
2022/03/26 04:33:42;;;;;;;42.63;20.50;;;;;;;4.46;52.82;95870.31;5055297;28;20210;-82
2022/03/26 04:36:08;;;;;;;39.33;19.90;;;;;;;4.12;52.14;95807.59;5073587;28;20178;-82
2022/03/26 04:38:33;;;;;;;41.13;19.93;;;;;;;4.48;52.43;95864.97;5073863;28;20243;-82
2022/03/26 04:40:59;;;;;;;40.03;16.87;;;;;;;4.21;51.89;95813.72;5074101;28;20541;-82
2022/03/26 04:43:24;;;;;;;38.20;18.30;;;;;;;4.44;51.18;95821.91;5074143;28;20170;-82
2022/03/26 04:45:50;;;;;;;40.80;18.00;;;;;;;5.01;51.36;95887.63;5074316;28;20186;-82
2022/03/26 04:48:15;;;;;;;39.27;16.97;;;;;;;5.10;50.62;95837.91;5074024;28;20181;-82
2022/03/26 04:50:41;;;;;;;43.37;19.77;;;;;;;5.25;49.11;95793.81;5073990;28;20170;-82
2022/03/26 04:53:06;;;;;;;65.83;25.23;;;;;;;6.10;48.27;95884.38;5073957;28;20175;-82
2022/03/26 04:55:32;;;;;;;67.97;26.13;;;;;;;6.31;47.37;95879.53;5074255;28;20237;-82
2022/03/26 04:57:58;;;;;;;54.47;20.17;;;;;;;6.19;47.09;95843.38;5074147;28;20155;-82
2022/03/26 05:00:23;;;;;;;45.40;21.50;;;;;;;6.67;46.29;95868.81;5055885;28;20560;-83
2022/03/26 05:02:49;;;;;;;49.43;18.93;;;;;;;6.80;45.37;95816.84;5074364;28;20252;-83
2022/03/26 05:05:15;;;;;;;33.50;18.57;;;;;;;7.63;44.29;95880.22;5055749;28;20198;-82
2022/03/26 05:07:48;;;;;;;28.53;14.73;;;;;;;8.13;43.15;95897.47;5073902;28;20177;-83
2022/03/26 05:10:14;;;;;;;34.40;13.43;;;;;;;8.18;41.77;95824.34;5073621;28;20181;-83
2022/03/26 05:12:41;;;;;;;28.57;14.50;;;;;;;9.31;41.06;95898.94;5073510;28;20246;-83
2022/03/26 05:15:08;;;;;;;32.03;14.70;;;;;;;10.21;38.73;95889.97;5073703;28;20249;-83
2022/03/26 05:17:34;;;;;;;31.80;14.57;;;;;;;10.83;36.53;95836.81;5055505;28;20937;-83
2022/03/26 05:20:00;;;;;;;29.23;14.53;;;;;;;12.04;34.57;95862.09;5073368;28;20636;-83
2022/03/26 05:22:25;;;;;;;24.83;13.43;;;;;;;13.12;32.86;95887.72;5075153;28;20165;-82
2022/03/26 05:24:51;;;;;;;22.70;12.03;;;;;;;13.78;31.53;95863.94;5076332;28;20234;-83
2022/03/26 05:27:16;;;;;;;28.53;12.77;;;;;;;14.58;30.39;95903.31;5073992;28;20175;-82
2022/03/26 05:29:42;;;;;;;26.23;11.90;;;;;;;14.72;29.26;95833.31;5073136;28;20163;-82
2022/03/26 05:32:07;;;;;;;23.52;11.65;;;;;;;15.76;28.39;95907.13;5073052;28;20227;-82
2022/03/26 05:34:33;;;;;;;22.42;11.52;;;;;;;15.80;27.66;95828.66;5055994;28;20304;-82
2022/03/26 05:36:59;;;;;;;22.38;11.15;;;;;;;16.59;27.14;95859.69;5074517;28;20221;-82
2022/03/26 05:39:24;;;;;;;28.05;11.75;;;;;;;17.05;26.27;95844.97;5072407;28;20170;-83
2022/03/26 05:41:50;;;;;;;27.98;10.98;;;;;;;17.75;26.36;95881.63;5072917;28;20224;-83
2022/03/26 05:44:16;;;;;;;24.77;11.75;;;;;;;18.20;25.50;95900.53;5072060;28;20288;-82
2022/03/26 05:46:42;;;;;;;27.92;12.30;;;;;;;18.42;24.59;95897.03;5072017;28;20281;-85
2022/03/26 05:49:07;;;;;;;73.00;18.88;;;;;;;18.54;24.06;95850.88;5072400;28;20198;-82
2022/03/26 05:51:33;;;;;;;82.65;23.92;;;;;;;19.28;23.31;95876.63;5072684;28;20228;-81
2022/03/26 05:53:58;;;;;;;110.90;25.40;;;;;;;19.74;22.92;95862.19;5073020;28;20239;-83
2022/03/26 05:56:24;;;;;;;148.95;32.38;;;;;;;20.59;22.24;95920.72;5072812;28;20876;-82
2022/03/26 05:58:50;;;;;;;118.97;32.35;;;;;;;20.90;21.21;95879.09;5071943;28;20171;-82
2022/03/26 06:01:16;;;;;;;291.27;54.58;;;;;;;21.52;20.83;95881.38;5072869;28;20624;-82
2022/03/26 06:03:41;;;;;;;1999.90;999.90;;;;;;;21.78;20.95;95874.38;5052502;28;20232;-82
2022/03/26 06:06:07;;;;;;;1999.90;999.90;;;;;;;22.07;19.96;95891.78;5054184;28;20194;-82
2022/03/26 06:08:32;;;;;;;1999.90;999.90;;;;;;;22.36;19.81;95868.09;5053841;28;20174;-82
2022/03/26 06:10:58;;;;;;;1999.90;999.90;;;;;;;23.23;18.96;95926.53;5071638;28;20647;-82
2022/03/26 06:13:23;;;;;;;1999.90;999.90;;;;;;;23.21;18.21;95898.31;5072076;28;20177;-82
2022/03/26 06:15:48;;;;;;;1999.90;999.90;;;;;;;23.51;18.49;95914.56;5072497;28;20627;-81
2022/03/26 06:18:14;;;;;;;162.40;148.45;;;;;;;23.88;17.64;95902.75;5071533;28;20654;-83
2022/03/26 06:20:42;;;;;;;17.38;10.10;;;;;;;24.11;17.35;95871.81;5071843;28;20576;-83
2022/03/26 06:23:07;;;;;;;16.42;9.48;;;;;;;24.31;17.16;95867.22;5071659;28;20655;-83
2022/03/26 06:25:33;;;;;;;16.50;10.30;;;;;;;24.76;16.97;95893.22;5071938;28;20191;-83
2022/03/26 06:27:59;;;;;;;18.42;10.25;;;;;;;25.14;17.09;95877.50;5072279;28;20175;-83
2022/03/26 06:30:24;;;;;;;22.50;10.57;;;;;;;25.27;16.46;95900.31;5072529;28;20699;-83
2022/03/26 06:32:52;;;;;;;27.13;11.20;;;;;;;25.42;17.03;95924.53;5054230;28;20185;-83
2022/03/26 06:35:18;;;;;;;19.38;11.80;;;;;;;25.63;16.55;95917.94;5072081;28;20242;-83
2022/03/26 06:37:44;;;;;;;18.08;10.55;;;;;;;25.27;16.53;95909.22;5059826;28;20185;-82
2022/03/26 06:40:10;;;;;;;20.35;13.10;;;;;;;25.18;16.90;95911.69;5058298;28;20936;-83
2022/03/26 06:42:35;;;;;;;16.92;9.52;;;;;;;25.15;16.51;95906.88;5053184;28;20183;-83
2022/03/26 06:45:01;;;;;;;21.95;11.43;;;;;;;24.61;16.92;95924.78;5053709;28;20745;-84
2022/03/26 06:47:27;;;;;;;16.15;9.93;;;;;;;24.58;17.12;95931.53;5071906;28;20179;-84
2022/03/26 06:49:53;;;;;;;14.10;9.27;;;;;;;24.41;17.14;95934.50;5075311;28;20186;-84
2022/03/26 06:52:19;;;;;;;14.00;9.23;;;;;;;23.66;17.53;95937.97;5073019;28;20170;-83
2022/03/26 06:54:45;;;;;;;17.20;9.52;;;;;;;22.89;18.43;95939.56;5071964;28;20266;-83
2022/03/26 06:57:10;;;;;;;16.20;9.10;;;;;;;22.26;19.04;95897.56;5071939;28;20173;-83
2022/03/26 06:59:36;;;;;;;18.00;9.15;;;;;;;21.55;19.57;95882.72;5072150;28;20219;-82
2022/03/26 07:02:01;;;;;;;21.25;9.43;;;;;;;20.91;20.68;95902.13;5071759;28;20670;-82
2022/03/26 07:04:27;;;;;;;21.08;9.23;;;;;;;20.03;21.21;95888.84;5071231;28;20178;-82
2022/03/26 07:06:52;;;;;;;18.00;8.50;;;;;;;19.69;22.16;95886.19;5070872;28;20244;-82
2022/03/26 07:09:18;;;;;;;13.02;8.85;;;;;;;19.57;21.95;95886.25;5071051;28;20181;-82
2022/03/26 07:11:43;;;;;;;27.95;9.60;;;;;;;18.97;21.75;95915.28;5071061;28;20560;-82
2022/03/26 07:14:08;;;;;;;16.90;9.27;;;;;;;18.51;22.99;95920.69;5071957;28;20175;-82
2022/03/26 07:16:34;;;;;;;21.33;9.80;;;;;;;18.82;24.02;95955.00;5072133;28;20166;-82
2022/03/26 07:18:59;;;;;;;19.30;9.20;;;;;;;18.48;23.85;95885.44;5053608;28;20175;-82
2022/03/26 07:21:25;;;;;;;17.90;9.27;;;;;;;18.74;23.24;95918.00;5071673;28;20158;-82
2022/03/26 07:23:51;;;;;;;25.48;10.50;;;;;;;18.26;23.24;95895.06;5071290;28;20647;-82
2022/03/26 07:26:17;;;;;;;16.40;9.25;;;;;;;18.21;23.85;95886.97;5070793;28;20218;-82
2022/03/26 07:28:42;;;;;;;24.52;9.57;;;;;;;18.97;24.93;95955.31;5070926;28;20201;-82
2022/03/26 07:31:08;;;;;;;20.48;9.25;;;;;;;19.23;23.71;95954.75;5070358;28;20182;-81
2022/03/26 07:33:33;;;;;;;18.85;11.60;;;;;;;19.26;23.82;95909.97;5070600;28;20647;-83
2022/03/26 07:35:59;;;;;;;40.42;35.95;;;;;;;19.28;23.93;95892.66;5052700;28;20570;-82
2022/03/26 07:38:24;;;;;;;107.45;98.97;;;;;;;19.56;23.57;95945.25;5071114;28;20173;-83
2022/03/26 07:40:50;;;;;;;271.67;247.90;;;;;;;19.74;23.31;95955.72;5070808;28;20253;-83
2022/03/26 07:43:15;;;;;;;343.05;312.08;;;;;;;19.53;23.92;95892.31;5070111;28;20209;-82
2022/03/26 07:45:44;;;;;;;507.35;455.77;;;;;;;19.79;23.39;95947.81;5051116;28;20284;-82
2022/03/26 07:48:09;;;;;;;972.40;645.78;;;;;;;19.87;24.27;95963.47;5068561;28;20670;-82
2022/03/26 07:50:35;;;;;;;1560.28;869.33;;;;;;;19.79;24.06;95929.09;5070556;28;20178;-82
2022/03/26 07:53:00;;;;;;;851.58;718.40;;;;;;;19.54;22.30;95901.97;5071714;28;20175;-81
2022/03/26 07:55:26;;;;;;;22.20;13.32;;;;;;;18.98;22.89;95918.75;5072630;28;20192;-82
2022/03/26 07:57:52;;;;;;;19.23;10.38;;;;;;;18.54;23.12;95915.69;5071390;28;20186;-81
2022/03/26 08:00:17;;;;;;;17.20;10.38;;;;;;;18.43;23.37;95881.84;5073958;28;20219;-82
2022/03/26 08:02:43;;;;;;;20.52;10.70;;;;;;;18.63;23.27;95956.19;5074565;28;20202;-80
2022/03/26 08:05:08;;;;;;;35.30;15.15;;;;;;;18.69;25.14;95963.25;5071319;28;20691;-81
2022/03/26 08:07:34;;;;;;;111.32;102.70;;;;;;;18.54;24.11;95923.69;5073864;28;20249;-81
2022/03/26 08:09:59;;;;;;;426.25;387.65;;;;;;;18.87;24.12;95936.41;5073580;28;20174;-81
2022/03/26 08:12:25;;;;;;;880.10;776.47;;;;;;;19.29;24.04;95946.84;5073720;28;20654;-80
2022/03/26 08:14:51;;;;;;;441.48;402.92;;;;;;;18.40;23.54;95895.66;5072962;28;20639;-81
2022/03/26 08:17:19;;;;;;;149.68;138.32;;;;;;;18.53;23.61;95947.91;5073671;28;20662;-80
2022/03/26 08:19:46;;;;;;;65.13;59.22;;;;;;;18.09;24.03;95950.94;5071182;28;20186;-80
2022/03/26 08:22:11;;;;;;;234.55;216.60;;;;;;;17.88;25.23;95950.69;5073162;28;20178;-80
2022/03/26 08:24:37;;;;;;;446.35;406.35;;;;;;;17.94;24.74;95953.25;5072311;28;20201;-82
2022/03/26 08:27:03;;;;;;;276.92;257.20;;;;;;;17.78;25.54;95947.75;5071647;28;20202;-80
2022/03/26 08:29:29;;;;;;;494.25;457.20;;;;;;;17.81;25.97;95864.75;5073131;28;20187;-82
2022/03/26 08:31:54;;;;;;;765.70;704.28;;;;;;;18.82;23.67;95941.66;5073235;28;20177;-81
2022/03/26 08:34:20;;;;;;;809.50;740.28;;;;;;;18.96;24.03;95923.50;5073351;28;20795;-82
2022/03/26 08:36:46;;;;;;;800.30;718.72;;;;;;;18.68;22.85;95945.63;5073429;28;20177;-81
2022/03/26 08:39:11;;;;;;;578.92;529.97;;;;;;;18.62;23.99;95927.88;5073326;28;20174;-84
2022/03/26 08:41:37;;;;;;;674.85;616.20;;;;;;;18.89;24.13;95925.50;5072270;28;20270;-79
2022/03/26 08:44:03;;;;;;;769.67;697.72;;;;;;;18.92;23.22;95931.19;5073179;28;20181;-80
2022/03/26 08:46:29;;;;;;;611.42;557.53;;;;;;;18.84;23.51;95928.91;5055061;28;20683;-80
2022/03/26 08:48:56;;;;;;;563.35;513.95;;;;;;;18.94;23.03;95936.31;5071726;28;20224;-80
2022/03/26 08:51:24;;;;;;;269.77;248.93;;;;;;;18.77;23.59;95920.19;5072272;28;20179;-82
2022/03/26 08:53:50;;;;;;;477.40;438.17;;;;;;;19.07;23.50;95918.16;5054840;28;20632;-80
2022/03/26 08:56:15;;;;;;;352.23;324.33;;;;;;;18.98;22.34;95892.88;5072483;28;20162;-80
2022/03/26 08:58:41;;;;;;;151.05;138.85;;;;;;;19.05;22.70;95928.25;5072509;28;20273;-80
2022/03/26 09:01:07;;;;;;;29.92;22.38;;;;;;;18.30;22.99;95853.59;5072226;28;20200;-80
2022/03/26 09:03:37;;;;;;;19.80;11.15;;;;;;;17.38;23.83;95912.91;5071963;28;20559;-79
2022/03/26 09:06:03;;;;;;;16.65;10.07;;;;;;;16.30;25.67;95910.09;5072150;28;20277;-79
2022/03/26 09:08:29;;;;;;;24.15;21.63;;;;;;;16.72;25.32;95908.44;5071375;28;20185;-79
2022/03/26 09:10:54;;;;;;;21.52;18.77;;;;;;;16.86;26.07;95916.06;5071701;28;20174;-80
2022/03/26 09:13:20;;;;;;;27.35;24.92;;;;;;;16.85;24.84;95917.09;5071400;28;20175;-79
2022/03/26 09:15:45;;;;;;;26.80;23.75;;;;;;;16.81;25.34;95860.03;5071059;28;20177;-80
2022/03/26 09:18:11;;;;;;;50.30;45.55;;;;;;;17.46;24.82;95908.06;5070958;28;20208;-80
2022/03/26 09:20:38;;;;;;;116.05;108.80;;;;;;;17.62;24.56;95910.09;5072587;28;20579;-79
2022/03/26 09:23:03;;;;;;;190.15;174.20;;;;;;;18.05;25.43;95901.00;5071795;28;20670;-79
2022/03/26 09:25:29;;;;;;;435.48;367.92;;;;;;;18.23;24.01;95892.91;5071215;28;20289;-79
2022/03/26 09:27:55;;;;;;;497.35;438.45;;;;;;;18.30;25.04;95874.91;5071093;28;20166;-79
2022/03/26 09:30:20;;;;;;;912.85;723.58;;;;;;;18.53;24.08;95891.91;5072103;28;20182;-80
2022/03/26 09:32:46;;;;;;;1999.90;869.55;;;;;;;18.69;25.77;95883.22;5072383;28;20652;-80
2022/03/26 09:35:13;;;;;;;1999.90;999.90;;;;;;;19.01;25.15;95876.41;5071875;28;20225;-79
2022/03/26 09:37:40;;;;;;;1999.90;999.90;;;;;;;18.92;24.56;95882.34;5071687;28;20228;-80
2022/03/26 09:40:07;;;;;;;1999.90;999.90;;;;;;;19.06;25.33;95873.00;5072056;28;20167;-78
2022/03/26 09:42:33;;;;;;;1999.90;999.90;;;;;;;18.82;25.54;95801.06;5072197;28;20182;-85
2022/03/26 09:44:59;;;;;;;1999.90;857.28;;;;;;;19.05;23.25;95847.34;5071727;28;20177;-80
2022/03/26 09:47:25;;;;;;;1196.75;976.88;;;;;;;19.04;23.95;95869.75;5071527;28;20245;-80
2022/03/26 09:49:50;;;;;;;1021.60;860.40;;;;;;;19.11;24.79;95860.53;5071916;28;20559;-80
2022/03/26 09:52:16;;;;;;;1976.60;963.25;;;;;;;18.88;24.81;95849.16;5071979;28;20178;-80
2022/03/26 09:54:43;;;;;;;870.58;788.53;;;;;;;18.67;24.02;95845.31;5071725;28;20175;-80
2022/03/26 09:57:09;;;;;;;834.85;758.40;;;;;;;18.31;24.72;95817.88;5071343;28;20675;-79
2022/03/26 09:59:35;;;;;;;832.58;654.75;;;;;;;18.41;26.15;95860.75;5071189;28;20170;-80
2022/03/26 10:02:02;;;;;;;1999.90;784.53;;;;;;;18.27;26.56;95843.38;5071500;28;20177;-79
2022/03/26 10:04:36;;;;;;;1999.90;999.90;;;;;;;18.29;25.29;95833.28;5071996;28;20178;-79
2022/03/26 10:07:02;;;;;;;1999.90;999.90;;;;;;;18.52;25.78;95855.63;5070843;28;20194;-79
2022/03/26 10:09:39;;;;;;;1999.90;999.90;;;;;;;18.69;26.18;95857.34;5071615;28;20159;-79
2022/03/26 10:12:19;;;;;;;1999.90;999.90;;;;;;;18.77;25.24;95842.81;5071464;28;20655;-80
2022/03/26 10:14:52;;;;;;;1999.90;999.90;;;;;;;18.77;26.92;95843.63;5071321;28;20169;-80
2022/03/26 10:17:35;;;;;;;1999.90;999.90;;;;;;;18.78;26.26;95837.25;5070351;28;20633;-80
2022/03/26 10:20:04;;;;;;;1999.90;999.90;;;;;;;18.76;25.66;95835.88;5071232;28;20613;-80
2022/03/26 10:22:41;;;;;;;1999.90;999.90;;;;;;;18.67;25.83;95832.78;5071103;28;20174;-80
2022/03/26 10:25:09;;;;;;;1999.90;999.90;;;;;;;18.60;26.26;95823.28;5063773;28;20198;-81
2022/03/26 10:27:38;;;;;;;1999.90;999.90;;;;;;;18.65;26.38;95826.88;5062318;28;20178;-80
2022/03/26 10:30:05;;;;;;;1999.90;999.90;;;;;;;18.53;26.63;95788.72;5060699;28;20189;-80
2022/03/26 10:32:39;;;;;;;1999.90;999.90;;;;;;;18.72;27.07;95826.72;5065949;28;20167;-81
2022/03/26 10:35:06;;;;;;;1999.90;999.90;;;;;;;18.50;25.47;95793.72;5063919;28;20305;-81
2022/03/26 10:37:45;;;;;;;1999.90;999.90;;;;;;;18.58;26.26;95809.38;5065014;28;20178;-81
2022/03/26 10:40:23;;;;;;;1999.90;999.90;;;;;;;18.54;25.13;95808.19;5067542;28;20178;-80
2022/03/26 10:42:59;;;;;;;1999.90;999.90;;;;;;;18.41;24.50;95806.63;5052718;28;20260;-80
2022/03/26 10:45:24;;;;;;;1999.90;999.90;;;;;;;17.99;26.08;95758.81;5067887;28;20243;-81
2022/03/26 10:47:55;;;;;;;1999.90;999.90;;;;;;;18.36;26.26;95804.66;5067280;28;20265;-81
2022/03/26 10:50:20;;;;;;;1999.90;999.90;;;;;;;18.05;25.58;95757.91;5061957;28;20263;-81
2022/03/26 10:52:46;;;;;;;1999.90;999.90;;;;;;;18.25;26.63;95797.47;5063894;28;20651;-80
2022/03/26 10:55:16;;;;;;;1999.90;999.90;;;;;;;18.29;27.08;95806.63;5069425;28;20175;-80
2022/03/26 10:57:46;;;;;;;1999.90;999.90;;;;;;;18.26;28.02;95798.28;5068269;28;20178;-80
2022/03/26 11:00:13;;;;;;;1999.90;999.90;;;;;;;18.12;27.11;95763.09;5065948;28;20177;-81
2022/03/26 11:02:39;;;;;;;1999.90;999.90;;;;;;;18.20;27.12;95789.38;5073548;28;20174;-81
2022/03/26 11:05:05;;;;;;;1999.90;999.90;;;;;;;18.07;26.86;95793.09;5065077;28;20210;-81
2022/03/26 11:07:32;;;;;;;1999.90;999.90;;;;;;;17.85;27.69;95776.13;5068816;28;20179;-81
2022/03/26 11:09:58;;;;;;;1999.90;999.90;;;;;;;17.17;26.64;95770.50;5070968;28;20182;-81